ADDS METAR Data INFO
IDs: Format: Raw Decoded Include TAF

Data at: 0745 UTC 21 Jul 2018

PATA 210652Z AUTO 34003KT 10SM CLR 19/12 A3020 RMK AO2 SLP228 T01940117 TSNO
PATA 210552Z AUTO 31005KT 10SM CLR 20/11 A3019 RMK AO2 SLP226 T02000111 10228 20200 55001 TSNO
PATA 210452Z 26004KT 10SM FEW055 SCT130 21/11 A3019 RMK AO2 SLP225 T02110106
PATA 210352Z VRB03KT 10SM FEW055 SCT130 21/12 A3019 RMK AO2 SLP224 T02110117
PATA 210252Z 24005KT 9SM CLR 22/11 A3019 RMK AO2 SLP226 T02170106 56008
PATA 210152Z VRB03KT 10SM SCT050 BKN140 22/11 A3020 RMK AO2 SLP228 T02220106
PATA 210052Z 23004KT 10SM SCT050 BKN140 22/11 A3021 RMK AO2 SLP231 T02170111
PATA 202352Z VRB03KT 9SM SCT050 BKN060 BKN140 22/11 A3022 RMK AO2 SLP234 T02220111 10222 20156 58007
PATA 202252Z VRB04KT 10SM SCT050 BKN060 BKN140 21/11 A3023 RMK AO2 SLP238 T02110106
PATA 202152Z 24004KT 10SM BKN055 BKN180 21/11 A3024 RMK AO2 SLP240 T02060106
PATA 202052Z 24004KT 10SM BKN070 BKN180 19/10 A3024 RMK AO2 SLP242 T01940100 56004
PATA 201952Z 23004KT 9SM SCT070 SCT150 18/11 A3024 RMK AO2 SLP242 T01830106
PATA 201852Z VRB04KT 10SM FEW060 SCT150 17/10 A3024 RMK AO2 SLP243 T01670100
PATA 201752Z VRB03KT 10SM FEW060 FEW150 16/09 A3025 RMK AO2 SLP246 T01560094 10161 20089 56001
PATA 201652Z 00000KT 10SM FEW060 FEW150 15/11 A3026 RMK AO2 SLP247 T01500106
PATA 201552Z 00000KT 10SM FEW080 13/09 A3025 RMK AO2 SLP247 T01330089
PATA 201452Z 00000KT 10SM BKN080 10/08 A3026 RMK AO2 SLP249 T01000083 55000
PATA 201352Z 00000KT 10SM BKN100 09/08 A3026 RMK AO2 SLP249 T00940078
PATA 201252Z AUTO 00000KT 10SM OVC090 09/08 A3026 RMK AO2 SLP249 T00940078 TSNO
PATA 201152Z AUTO 00000KT 10SM OVC120 09/08 A3026 RMK AO2 SLP248 T00940078 10144 20094 51006 TSNO
PATA 201052Z AUTO 00000KT 10SM BKN085 OVC120 10/08 A3025 RMK AO2 SLP246 T01000083 TSNO
PATA 200952Z AUTO 35003KT 10SM OVC080 11/09 A3025 RMK AO2 SLP244 T01110089 TSNO
PATA 200852Z AUTO 00000KT 10SM SCT075 13/10 A3024 RMK AO2 SLP242 T01330100 401830072 52007 TSNO
PATA 200752Z AUTO 00000KT 10SM BKN120 13/09 A3023 RMK AO2 SLP239 T01280094 TSNO
PATA 200652Z AUTO 00000KT 10SM SCT110 13/09 A3023 RMK AO2 SLP237 T01330089 TSNO
PATA 200552Z AUTO 35007KT 10SM CLR 14/09 A3022 RMK AO2 SLP234 60000 T01440089 10183 20144 51008 TSNO
PATA 200452Z VRB04KT 10SM FEW037 OVC080 15/09 A3022 RMK AO2 SLP234 T01500094
PATA 200352Z 33011KT 10SM BKN040 BKN060 OVC080 16/08 A3021 RMK AO2 RAE0257 SLP231 P0000 T01610083
PATA 200252Z 32006KT 10SM -RA BKN040 BKN050 OVC080 16/09 A3020 RMK AO2 RAB48 SLP227 P0000 60000 T01610094 53006
PATA 200152Z 29007KT 9SM BKN040 BKN048 OVC090 17/11 A3018 RMK AO2 SLP223 T01720106
PATA 200052Z 26007KT 230V310 10SM FEW041 BKN055 OVC085 17/11 A3018 RMK AO2 SLP222 T01720106
PATA 192352Z VRB06KT 10SM SCT050 BKN090 OVC140 18/09 A3018 RMK AO2 SLP220 T01780094 10178 20144 51005
PATA 192252Z VRB05KT 10SM BKN050 BKN090 OVC140 18/10 A3017 RMK AO2 SLP218 T01780100
PATA 192152Z VRB05KT 10SM BKN050 18/09 A3017 RMK AO2 SLP217 T01780094
PATA 192052Z VRB05KT 10SM BKN050 17/09 A3016 RMK AO2 SLP215 T01670094 51007
PATA 191952Z VRB06KT 10SM BKN050 16/10 A3016 RMK AO2 SLP213 T01610100